createdAt,value
2018-12-13T00:01:56.746Z,13.70
2018-12-13T00:04:29.780Z,17.33
2018-12-13T00:07:01.532Z,16.40
2018-12-13T00:09:32.936Z,12.03
2018-12-13T00:12:06.098Z,12.70
2018-12-13T00:14:37.471Z,13.60
2018-12-13T00:17:08.600Z,14.50
2018-12-13T00:19:39.703Z,14.70
2018-12-13T00:22:13.422Z,12.27
2018-12-13T00:24:44.806Z,13.60
2018-12-13T00:27:15.952Z,17.63
2018-12-13T00:29:49.403Z,16.67
2018-12-13T00:32:20.666Z,15.63
2018-12-13T00:34:53.914Z,15.13
2018-12-13T00:37:27.054Z,19.10
2018-12-13T00:39:58.472Z,19.87
2018-12-13T00:42:31.931Z,21.37
2018-12-13T00:45:05.052Z,24.20
2018-12-13T00:47:36.945Z,23.87
2018-12-13T00:57:44.269Z,16.43
2018-12-13T01:02:46.804Z,15.30
2018-12-13T01:05:17.944Z,13.93
2018-12-13T01:07:51.229Z,14.10
2018-12-13T01:10:22.652Z,15.33
2018-12-13T01:12:53.845Z,14.80
2018-12-13T01:15:33.231Z,14.70
2018-12-13T01:18:04.735Z,17.33
2018-12-13T01:26:22.768Z,18.00
2018-12-13T01:28:54.388Z,18.20
2018-12-13T01:31:27.412Z,17.10
2018-12-13T01:34:00.520Z,22.57
2018-12-13T01:36:31.804Z,18.47
2018-12-13T01:39:07.105Z,19.27
2018-12-13T01:41:40.317Z,19.07
2018-12-13T01:44:13.253Z,23.17
2018-12-13T01:46:49.266Z,17.93
2018-12-13T01:49:22.224Z,15.63
2018-12-13T01:51:53.629Z,16.57
2018-12-13T01:54:27.011Z,18.33
2018-12-13T01:57:00.174Z,18.70
2018-12-13T01:59:31.824Z,18.27
2018-12-13T02:02:05.160Z,24.63
2018-12-13T02:04:36.763Z,18.17
2018-12-13T02:07:10.389Z,17.47
2018-12-13T02:09:41.804Z,17.27
2018-12-13T02:12:12.785Z,18.17
2018-12-13T02:14:43.721Z,17.20
2018-12-13T02:17:17.069Z,13.83
2018-12-13T02:19:50.088Z,15.87
2018-12-13T02:22:23.020Z,20.73
2018-12-13T02:24:54.477Z,16.03
2018-12-13T02:27:28.069Z,16.87
2018-12-13T02:30:01.054Z,17.53
2018-12-13T02:32:32.546Z,17.20
2018-12-13T02:35:05.952Z,17.63
2018-12-13T02:37:37.660Z,17.83
2018-12-13T02:40:10.806Z,19.10
2018-12-13T02:42:41.289Z,17.70
2018-12-13T02:45:14.877Z,19.23
2018-12-13T02:47:46.292Z,17.77
2018-12-13T02:50:19.900Z,18.30
2018-12-13T02:52:51.260Z,18.27
2018-12-13T02:55:24.642Z,16.33
2018-12-13T02:57:56.051Z,18.13
2018-12-13T03:00:28.946Z,19.17
2018-12-13T03:03:02.125Z,17.33
2018-12-13T03:05:40.033Z,20.40
2018-12-13T03:08:14.045Z,19.43
2018-12-13T03:10:47.820Z,20.80
2018-12-13T03:13:19.246Z,20.37
2018-12-13T03:15:52.660Z,21.43
2018-12-13T03:18:23.834Z,21.43
2018-12-13T03:20:55.069Z,21.90
2018-12-13T03:23:28.259Z,25.93
2018-12-13T03:25:59.689Z,24.80
2018-12-13T03:28:31.188Z,24.87
2018-12-13T03:31:04.352Z,28.67
2018-12-13T03:33:40.192Z,28.33
2018-12-13T03:36:13.427Z,26.43
2018-12-13T03:38:44.841Z,24.80
2018-12-13T03:41:18.189Z,27.40
2018-12-13T03:43:49.590Z,29.37
2018-12-13T03:46:22.793Z,25.90
2018-12-13T03:48:54.330Z,25.10
2018-12-13T03:51:27.685Z,23.67
2018-12-13T03:54:00.885Z,22.00
2018-12-13T03:56:32.045Z,22.33
2018-12-13T03:59:05.419Z,23.80
2018-12-13T04:01:37.025Z,22.70
2018-12-13T04:04:08.217Z,23.07
2018-12-13T04:06:41.739Z,20.63
2018-12-13T04:09:12.932Z,20.77
2018-12-13T04:11:44.103Z,17.63
2018-12-13T04:14:17.377Z,19.53
2018-12-13T04:16:49.700Z,20.10
2018-12-13T04:19:21.494Z,26.50
2018-12-13T04:21:53.631Z,20.77
2018-12-13T04:24:24.866Z,20.30
2018-12-13T04:26:58.054Z,21.67
2018-12-13T04:29:29.596Z,25.43
2018-12-13T04:32:00.540Z,24.93
2018-12-13T04:34:34.065Z,24.33
2018-12-13T04:37:05.515Z,24.70
2018-12-13T04:39:38.844Z,27.70
2018-12-13T04:42:10.165Z,25.93
2018-12-13T04:44:43.354Z,19.90
2018-12-13T04:47:14.804Z,23.37
2018-12-13T04:49:49.259Z,27.93
2018-12-13T04:52:20.413Z,23.47
2018-12-13T04:54:54.072Z,26.13
2018-12-13T04:57:25.600Z,23.50
2018-12-13T04:59:57.220Z,25.80
2018-12-13T05:02:32.780Z,20.07
2018-12-13T05:05:05.707Z,25.33
2018-12-13T05:07:41.777Z,21.93
2018-12-13T05:10:17.117Z,22.03
2018-12-13T05:12:48.285Z,21.33
2018-12-13T05:15:21.677Z,20.80
2018-12-13T05:17:54.650Z,21.67
2018-12-13T05:20:27.855Z,20.17
2018-12-13T05:22:59.514Z,21.57
2018-12-13T05:25:32.848Z,18.47
2018-12-13T05:28:05.980Z,20.60
2018-12-13T05:30:37.363Z,19.83
2018-12-13T05:33:10.677Z,21.93
2018-12-13T05:35:42.073Z,20.40
2018-12-13T05:38:13.086Z,20.83
2018-12-13T05:40:44.265Z,23.30
2018-12-13T05:43:19.694Z,20.80
2018-12-13T05:45:53.081Z,19.83
2018-12-13T05:48:24.356Z,24.53
2018-12-13T05:50:57.786Z,21.43
2018-12-13T05:53:35.376Z,21.37
2018-12-13T05:56:06.706Z,23.30
2018-12-13T05:58:40.248Z,20.93
2018-12-13T06:01:13.492Z,20.10
2018-12-13T06:03:44.571Z,21.47
2018-12-13T06:06:16.118Z,17.43
2018-12-13T06:08:49.510Z,21.47
2018-12-13T06:11:21.138Z,19.83
2018-12-13T06:13:54.381Z,20.23
2018-12-13T06:16:25.732Z,27.37
2018-12-13T06:18:56.732Z,21.63
2018-12-13T06:21:27.478Z,19.73
2018-12-13T06:23:58.760Z,22.93
2018-12-13T06:26:31.959Z,23.03
2018-12-13T06:29:05.135Z,22.00
2018-12-13T06:31:36.657Z,23.30
2018-12-13T06:34:09.967Z,25.17
2018-12-13T06:36:43.173Z,21.57
2018-12-13T06:39:14.538Z,21.50
2018-12-13T06:41:47.844Z,20.37
2018-12-13T06:44:19.049Z,23.50
2018-12-13T06:46:50.268Z,27.80
2018-12-13T06:49:23.531Z,24.00
2018-12-13T06:51:56.723Z,22.73
2018-12-13T06:54:28.256Z,23.37
2018-12-13T06:57:00.567Z,24.93
2018-12-13T06:59:32.021Z,24.40
2018-12-13T07:02:03.357Z,27.80
2018-12-13T07:04:36.526Z,25.70
2018-12-13T07:07:11.458Z,23.80
2018-12-13T07:09:44.490Z,26.40
2018-12-13T07:12:17.668Z,24.07
2018-12-13T07:14:51.856Z,24.93
2018-12-13T07:19:56.956Z,18.20
2018-12-13T07:22:28.367Z,23.47
2018-12-13T07:24:59.699Z,22.80
2018-12-13T07:27:33.205Z,23.63
2018-12-13T07:30:06.475Z,20.43
2018-12-13T07:32:37.892Z,21.20
2018-12-13T07:35:11.119Z,21.70
2018-12-13T07:37:45.054Z,21.23
2018-12-13T07:40:18.060Z,21.77
2018-12-13T07:42:49.617Z,21.60
2018-12-13T07:45:23.224Z,20.57
2018-12-13T07:47:54.751Z,20.87
2018-12-13T07:50:27.915Z,22.23
2018-12-13T07:52:59.588Z,21.27
2018-12-13T07:55:32.642Z,23.20
2018-12-13T07:58:08.693Z,21.53
2018-12-13T08:00:40.095Z,24.10
2018-12-13T08:03:13.816Z,25.30
2018-12-13T08:05:45.196Z,21.60
2018-12-13T08:08:20.804Z,25.37
2018-12-13T08:10:49.472Z,23.87
2018-12-13T08:13:22.664Z,23.87
2018-12-13T08:15:58.635Z,25.40
2018-12-13T08:18:31.812Z,20.50
2018-12-13T08:21:04.957Z,21.40
2018-12-13T08:31:12.496Z,24.57
2018-12-13T08:33:43.906Z,22.50
2018-12-13T08:36:17.300Z,26.63
2018-12-13T08:38:49.026Z,24.30
2018-12-13T08:41:22.407Z,25.70
2018-12-13T08:43:53.981Z,27.90
2018-12-13T08:46:27.049Z,24.90
2018-12-13T08:48:58.520Z,27.93
2018-12-13T08:51:29.719Z,24.43
2018-12-13T08:54:03.084Z,24.03
2018-12-13T08:56:34.497Z,27.60
2018-12-13T08:59:18.484Z,29.60
2018-12-13T09:01:49.947Z,29.87
2018-12-13T09:04:23.577Z,30.83
2018-12-13T09:06:57.393Z,30.13
2018-12-13T09:09:28.958Z,30.97
2018-12-13T09:12:02.794Z,33.93
2018-12-13T09:14:36.387Z,30.70
2018-12-13T09:17:07.704Z,29.47
2018-12-13T09:19:41.387Z,28.07
2018-12-13T09:22:17.447Z,32.13
2018-12-13T09:24:48.245Z,33.53
2018-12-13T09:27:21.512Z,34.90
2018-12-13T09:29:53.138Z,32.83
2018-12-13T09:32:26.506Z,33.63
2018-12-13T09:34:58.274Z,36.87
2018-12-13T09:37:29.953Z,33.13
2018-12-13T09:40:03.100Z,32.57
2018-12-13T09:42:34.892Z,34.63
2018-12-13T09:45:08.075Z,41.80
2018-12-13T09:47:39.964Z,33.73
2018-12-13T09:50:15.006Z,38.63
2018-12-13T09:52:50.852Z,40.37
2018-12-13T09:55:25.983Z,34.37
2018-12-13T09:57:59.834Z,39.93
2018-12-13T10:00:31.518Z,37.43
2018-12-13T10:03:05.087Z,36.33
2018-12-13T10:05:39.686Z,39.87
2018-12-13T10:08:11.443Z,31.80
2018-12-13T10:10:44.357Z,35.80
2018-12-13T10:13:17.346Z,33.73
2018-12-13T10:15:56.774Z,34.30
2018-12-13T10:18:30.349Z,33.70
2018-12-13T10:21:01.833Z,36.40
2018-12-13T10:23:35.182Z,28.67
2018-12-13T10:26:06.709Z,41.30
2018-12-13T10:28:39.935Z,34.43
2018-12-13T10:31:13.226Z,30.57
2018-12-13T10:36:28.112Z,30.53
2018-12-13T10:39:01.747Z,32.93
2018-12-13T10:41:32.512Z,32.83
2018-12-13T10:44:03.910Z,33.17
2018-12-13T10:46:39.532Z,33.27
2018-12-13T10:49:12.658Z,33.50
2018-12-13T10:51:44.182Z,31.33
2018-12-13T10:54:16.104Z,34.03
2018-12-13T10:56:47.750Z,32.60
2018-12-13T10:59:20.878Z,32.80
2018-12-13T11:02:02.180Z,32.57
2018-12-13T11:04:35.962Z,32.93
2018-12-13T11:07:09.838Z,34.77
2018-12-13T11:09:41.511Z,32.77
2018-12-13T11:12:14.728Z,27.63
2018-12-13T11:14:47.162Z,29.13
2018-12-13T11:17:21.293Z,30.03
2018-12-13T11:19:53.205Z,28.47
2018-12-13T11:22:28.242Z,25.50
2018-12-13T11:25:02.788Z,29.77
2018-12-13T11:27:45.280Z,24.90
2018-12-13T11:30:24.080Z,26.50
2018-12-13T11:33:00.219Z,26.30
2018-12-13T11:35:34.918Z,27.23
2018-12-13T11:38:15.397Z,24.43
2018-12-13T11:40:50.745Z,31.90
2018-12-13T11:43:30.125Z,26.37
2018-12-13T11:46:07.827Z,26.30
2018-12-13T11:48:42.736Z,28.13
2018-12-13T11:51:19.765Z,29.63
2018-12-13T11:53:53.836Z,26.70
2018-12-13T11:56:25.690Z,26.03
2018-12-13T11:59:06.166Z,24.57
2018-12-13T12:01:41.512Z,27.97
2018-12-13T12:04:21.652Z,25.00
2018-12-13T12:07:01.685Z,25.27
2018-12-13T12:09:35.165Z,25.27
2018-12-13T12:12:12.852Z,25.03
2018-12-13T12:14:52.177Z,30.13
2018-12-13T12:17:29.560Z,25.27
2018-12-13T12:20:03.460Z,27.37
2018-12-13T12:22:38.538Z,28.03
2018-12-13T12:25:14.264Z,26.87
2018-12-13T12:27:48.960Z,27.33
2018-12-13T12:30:26.019Z,26.07
2018-12-13T12:33:01.021Z,23.10
2018-12-13T12:35:35.909Z,27.40
2018-12-13T12:38:10.623Z,25.70
2018-12-13T12:40:45.445Z,28.60
2018-12-13T12:43:20.675Z,28.40
2018-12-13T12:45:54.614Z,30.70
2018-12-13T12:48:28.312Z,28.67
2018-12-13T12:51:02.313Z,29.60
2018-12-13T12:53:40.033Z,28.70
2018-12-13T12:56:17.923Z,31.27
2018-12-13T12:58:53.676Z,26.37
2018-12-13T13:01:29.226Z,32.90
2018-12-13T13:04:08.482Z,26.07
2018-12-13T13:06:40.290Z,33.90
2018-12-13T13:09:15.530Z,33.47
2018-12-13T13:11:48.564Z,33.03
2018-12-13T13:14:23.520Z,29.37
2018-12-13T13:16:58.244Z,28.77
2018-12-13T13:19:33.085Z,26.57
2018-12-13T13:22:07.931Z,26.90
2018-12-13T13:24:42.685Z,25.77
2018-12-13T13:27:17.573Z,27.00
2018-12-13T13:29:51.106Z,27.70
2018-12-13T13:32:27.099Z,25.67
2018-12-13T13:35:03.245Z,28.50
2018-12-13T13:37:40.769Z,33.80
2018-12-13T13:40:21.147Z,32.17
2018-12-13T13:42:56.490Z,32.20
2018-12-13T13:45:30.566Z,30.27
2018-12-13T13:48:21.387Z,34.43
2018-12-13T13:51:07.200Z,33.90
2018-12-13T13:53:41.427Z,36.30
2018-12-13T13:56:16.372Z,31.03
2018-12-13T13:58:50.536Z,41.30
2018-12-13T14:01:25.758Z,32.10
2018-12-13T14:03:58.985Z,33.57
2018-12-13T14:06:30.492Z,29.47
2018-12-13T14:09:07.801Z,29.97
2018-12-13T14:11:39.164Z,30.47
2018-12-13T14:14:10.133Z,29.03
2018-12-13T14:16:41.702Z,29.73
2018-12-13T14:19:15.832Z,31.20
2018-12-13T14:21:49.092Z,29.60
2018-12-13T14:24:20.311Z,30.67
2018-12-13T14:26:51.725Z,28.33
2018-12-13T14:29:24.029Z,26.47
2018-12-13T14:31:55.182Z,25.17
2018-12-13T14:34:26.370Z,27.10
2018-12-13T14:37:01.719Z,26.63
2018-12-13T14:39:34.987Z,24.87
2018-12-13T14:42:12.813Z,30.40
2018-12-13T14:44:46.784Z,30.90
2018-12-13T14:47:20.599Z,26.83
2018-12-13T14:49:58.474Z,26.17
2018-12-13T14:52:30.342Z,27.53
2018-12-13T14:55:04.604Z,32.17
2018-12-13T14:57:39.347Z,30.07
2018-12-13T15:00:12.406Z,27.87
2018-12-13T15:02:48.241Z,30.17
2018-12-13T15:05:19.926Z,31.17
2018-12-13T15:07:53.040Z,27.17
2018-12-13T15:10:24.862Z,30.27
2018-12-13T15:12:59.949Z,25.30
2018-12-13T15:15:33.124Z,25.60
2018-12-13T15:18:06.826Z,25.20
2018-12-13T15:20:39.151Z,27.13
2018-12-13T15:23:13.890Z,28.77
2018-12-13T15:25:45.212Z,28.53
2018-12-13T15:28:33.943Z,29.47
2018-12-13T15:31:08.035Z,28.73
2018-12-13T15:33:41.710Z,30.93
2018-12-13T15:36:14.704Z,34.20
2018-12-13T15:38:47.671Z,30.80
2018-12-13T15:41:19.356Z,34.07
2018-12-13T15:43:52.571Z,32.53
2018-12-13T15:46:25.547Z,32.83
2018-12-13T15:48:57.010Z,33.30
2018-12-13T15:51:27.931Z,37.93
2018-12-13T15:54:01.146Z,35.40
2018-12-13T15:56:32.781Z,33.73
2018-12-13T15:59:06.490Z,32.70
2018-12-13T16:01:46.688Z,34.13
2018-12-13T16:04:18.012Z,39.67
2018-12-13T16:06:51.351Z,30.83
2018-12-13T16:09:22.040Z,32.20
2018-12-13T16:11:57.525Z,32.07
2018-12-13T16:14:29.158Z,33.73
2018-12-13T16:17:00.103Z,31.07
2018-12-13T16:19:30.736Z,38.00
2018-12-13T16:22:02.424Z,36.73
2018-12-13T16:24:33.846Z,33.63
2018-12-13T16:27:04.956Z,37.50
2018-12-13T16:32:21.794Z,36.30
2018-12-13T16:34:56.900Z,39.03
2018-12-13T16:37:31.019Z,41.60
2018-12-13T16:40:10.286Z,41.53
2018-12-13T16:42:43.209Z,42.13
2018-12-13T16:45:17.995Z,45.03
2018-12-13T16:47:52.614Z,40.23
2018-12-13T16:50:32.116Z,46.73
2018-12-13T16:53:12.570Z,42.03
2018-12-13T16:55:52.902Z,36.33
2018-12-13T16:58:32.905Z,39.30
2018-12-13T17:01:10.552Z,40.43
2018-12-13T17:03:47.302Z,44.60
2018-12-13T17:06:31.330Z,37.20
2018-12-13T17:09:07.873Z,43.27
2018-12-13T17:11:41.673Z,36.73
2018-12-13T17:14:17.311Z,37.07
2018-12-13T17:16:52.698Z,37.80
2018-12-13T17:19:28.134Z,45.10
2018-12-13T17:22:04.049Z,41.10
2018-12-13T17:24:45.192Z,40.00
2018-12-13T17:27:23.081Z,39.97
2018-12-13T17:29:58.128Z,40.87
2018-12-13T17:32:32.497Z,38.73
2018-12-13T17:35:15.779Z,38.27
2018-12-13T17:37:51.319Z,38.93
2018-12-13T17:40:33.104Z,40.70
2018-12-13T17:43:08.385Z,37.17
2018-12-13T17:45:45.320Z,42.73
2018-12-13T17:48:22.292Z,36.60
2018-12-13T17:50:59.876Z,33.97
2018-12-13T17:53:34.693Z,37.27
2018-12-13T17:56:09.778Z,38.43
2018-12-13T17:58:46.805Z,36.83
2018-12-13T18:01:22.036Z,35.40
2018-12-13T18:04:02.227Z,34.17
2018-12-13T18:06:35.899Z,32.70
2018-12-13T18:09:10.618Z,33.27
2018-12-13T18:11:45.471Z,39.53
2018-12-13T18:14:19.457Z,38.00
2018-12-13T18:16:53.396Z,36.03
2018-12-13T18:19:28.126Z,33.23
2018-12-13T18:22:05.899Z,36.83
2018-12-13T18:24:44.048Z,30.30
2018-12-13T18:27:20.301Z,36.83
2018-12-13T18:29:56.299Z,30.00
2018-12-13T18:32:29.865Z,34.13
2018-12-13T18:35:05.829Z,31.80
2018-12-13T18:37:46.614Z,26.77
2018-12-13T18:40:23.803Z,28.17
2018-12-13T18:43:00.320Z,33.43
2018-12-13T18:45:40.035Z,32.20
2018-12-13T18:48:21.546Z,33.37
2018-12-13T18:51:02.417Z,36.43
2018-12-13T18:53:38.850Z,27.03
2018-12-13T18:56:16.573Z,31.17
2018-12-13T18:58:52.789Z,31.10
2018-12-13T19:01:28.563Z,31.93
2018-12-13T19:04:04.863Z,32.57
2018-12-13T19:06:44.592Z,31.83
2018-12-13T19:09:19.927Z,32.40
2018-12-13T19:11:56.129Z,29.03
2018-12-13T19:14:31.911Z,38.70
2018-12-13T19:17:10.008Z,29.93
2018-12-13T19:19:44.061Z,31.60
2018-12-13T19:22:21.797Z,31.63
2018-12-13T19:27:54.338Z,32.37
2018-12-13T19:30:35.850Z,32.70
2018-12-13T19:33:15.893Z,28.60
2018-12-13T19:35:53.192Z,29.97
2018-12-13T19:38:39.124Z,29.73
2018-12-13T19:41:16.459Z,29.17
2018-12-13T19:43:53.804Z,25.93
2018-12-13T19:46:33.260Z,25.93
2018-12-13T19:49:08.674Z,33.43
2018-12-13T19:51:44.957Z,29.07
2018-12-13T19:54:25.227Z,22.23
2018-12-13T19:57:01.641Z,20.23
2018-12-13T19:59:41.762Z,22.13
2018-12-13T20:02:23.702Z,19.23
2018-12-13T20:04:58.356Z,18.00
2018-12-13T20:07:32.986Z,15.07
2018-12-13T20:10:08.739Z,16.23
2018-12-13T20:12:43.565Z,16.27
2018-12-13T20:15:24.249Z,15.43
2018-12-13T20:17:56.760Z,14.20
2018-12-13T20:20:36.355Z,10.60
2018-12-13T20:23:16.239Z,13.73
2018-12-13T20:25:51.786Z,13.07
2018-12-13T20:28:25.760Z,11.47
2018-12-13T20:31:00.376Z,10.50
2018-12-13T20:33:36.642Z,12.23
2018-12-13T20:36:13.406Z,11.03
2018-12-13T20:38:49.922Z,11.37
2018-12-13T20:41:28.202Z,11.77
2018-12-13T20:44:04.554Z,12.57
2018-12-13T20:46:42.727Z,11.23
2018-12-13T20:49:22.791Z,12.87
2018-12-13T20:51:54.162Z,17.90
2018-12-13T20:54:31.442Z,18.20
2018-12-13T20:57:06.883Z,21.13
2018-12-13T20:59:44.310Z,22.57
2018-12-13T21:02:21.722Z,19.83
2018-12-13T21:05:01.848Z,22.03
2018-12-13T21:07:36.308Z,20.70
2018-12-13T21:10:17.647Z,22.30
2018-12-13T21:12:51.912Z,22.60
2018-12-13T21:15:29.119Z,20.53
2018-12-13T21:18:04.171Z,28.97
2018-12-13T21:20:38.888Z,28.47
2018-12-13T21:23:13.887Z,21.97
2018-12-13T21:25:53.392Z,26.47
2018-12-13T21:28:27.930Z,27.27
2018-12-13T21:31:01.746Z,25.73
2018-12-13T21:33:41.611Z,26.60
2018-12-13T21:36:16.676Z,27.77
2018-12-13T21:38:49.778Z,27.27
2018-12-13T21:41:24.633Z,27.70
2018-12-13T21:44:02.668Z,28.37
2018-12-13T21:46:35.785Z,26.83
2018-12-13T21:49:11.281Z,26.53
2018-12-13T21:51:48.350Z,26.53
2018-12-13T21:54:23.917Z,30.30
2018-12-13T21:56:58.278Z,24.97
2018-12-13T21:59:32.994Z,29.07
2018-12-13T22:02:08.130Z,30.23
2018-12-13T22:04:45.873Z,29.10
2018-12-13T22:07:20.741Z,27.40
2018-12-13T22:10:01.061Z,24.27
2018-12-13T22:12:36.457Z,25.00
2018-12-13T22:15:14.869Z,30.50
2018-12-13T22:17:52.355Z,27.03
2018-12-13T22:20:25.952Z,26.77
2018-12-13T22:23:01.603Z,26.73
2018-12-13T22:25:37.257Z,31.57
2018-12-13T22:28:12.174Z,27.40
2018-12-13T22:30:47.815Z,28.83
2018-12-13T22:33:21.863Z,27.33
2018-12-13T22:35:56.694Z,29.23
2018-12-13T22:38:31.607Z,28.73
2018-12-13T22:41:06.438Z,29.50
2018-12-13T22:43:43.325Z,31.73
2018-12-13T22:46:20.789Z,28.40
2018-12-13T22:49:02.784Z,32.53
2018-12-13T22:51:39.072Z,31.60
2018-12-13T22:54:14.165Z,31.60
2018-12-13T22:56:48.744Z,30.70
2018-12-13T22:59:24.077Z,28.70
2018-12-13T23:01:58.871Z,29.23
2018-12-13T23:04:32.607Z,33.87
2018-12-13T23:07:07.662Z,35.60
2018-12-13T23:09:40.972Z,39.30
2018-12-13T23:12:15.824Z,38.63
2018-12-13T23:14:50.813Z,39.37
2018-12-13T23:17:24.538Z,31.93
2018-12-13T23:20:00.380Z,37.10
2018-12-13T23:22:38.095Z,32.93
2018-12-13T23:25:12.138Z,35.90
2018-12-13T23:27:47.077Z,41.50
2018-12-13T23:30:27.304Z,43.60
2018-12-13T23:33:02.749Z,48.53
2018-12-13T23:35:38.596Z,36.53
2018-12-13T23:38:13.245Z,35.57
2018-12-13T23:40:54.785Z,37.77
2018-12-13T23:43:30.276Z,38.40
2018-12-13T23:46:05.166Z,36.60
2018-12-13T23:48:40.246Z,41.07
2018-12-13T23:51:14.984Z,38.77
2018-12-13T23:53:54.504Z,37.90
2018-12-13T23:56:31.772Z,36.50
2018-12-13T23:59:06.875Z,36.10
